createdAt,value
2018-11-21T00:00:27.607Z,5.10
2018-11-21T00:02:56.541Z,5.10
2018-11-21T00:05:25.498Z,5.10
2018-11-21T00:07:54.374Z,5.30
2018-11-21T00:10:23.346Z,4.80
2018-11-21T00:12:54.725Z,4.90
2018-11-21T00:15:23.582Z,5.30
2018-11-21T00:17:52.461Z,5.20
2018-11-21T00:20:21.392Z,5.10
2018-11-21T00:22:50.158Z,5.20
2018-11-21T00:25:18.947Z,4.90
2018-11-21T00:27:47.780Z,5.10
2018-11-21T00:30:17.034Z,5.10
2018-11-21T00:32:47.846Z,5.20
2018-11-21T00:35:16.779Z,5.40
2018-11-21T00:37:45.671Z,5.10
2018-11-21T00:40:17.868Z,5.50
2018-11-21T00:42:47.169Z,5.40
2018-11-21T00:45:15.742Z,4.90
2018-11-21T00:47:44.597Z,5.10
2018-11-21T00:50:14.364Z,5.50
2018-11-21T00:52:43.188Z,5.10
2018-11-21T00:55:12.155Z,5.10
2018-11-21T00:57:41.052Z,5.30
2018-11-21T01:00:11.391Z,5.40
2018-11-21T01:02:40.314Z,5.30
2018-11-21T01:05:09.203Z,5.50
2018-11-21T01:07:38.077Z,5.10
2018-11-21T01:10:06.958Z,5.00
2018-11-21T01:12:35.906Z,4.90
2018-11-21T01:15:05.045Z,5.00
2018-11-21T01:17:33.943Z,5.00
2018-11-21T01:20:02.815Z,5.10
2018-11-21T01:22:31.986Z,4.70
2018-11-21T01:25:00.912Z,4.70
2018-11-21T01:27:29.784Z,4.60
2018-11-21T01:29:58.727Z,5.00
2018-11-21T01:32:27.590Z,4.80
2018-11-21T01:35:01.653Z,4.30
2018-11-21T01:37:30.595Z,4.60
2018-11-21T01:39:59.467Z,5.10
2018-11-21T01:42:28.381Z,5.10
2018-11-21T01:44:57.256Z,5.20
2018-11-21T01:47:26.160Z,4.80
2018-11-21T01:49:55.027Z,4.80
2018-11-21T01:52:23.915Z,5.00
2018-11-21T01:54:52.739Z,4.80
2018-11-21T01:57:21.705Z,4.60
2018-11-21T01:59:50.763Z,4.70
2018-11-21T02:02:19.652Z,4.80
2018-11-21T02:04:48.567Z,4.90
2018-11-21T02:07:17.403Z,4.60
2018-11-21T02:09:46.698Z,4.50
2018-11-21T02:12:15.547Z,4.70
2018-11-21T02:14:44.426Z,4.80
2018-11-21T02:17:13.312Z,4.90
2018-11-21T02:19:42.236Z,4.90
2018-11-21T02:22:11.140Z,5.00
2018-11-21T02:24:40.108Z,4.80
2018-11-21T02:27:09.180Z,4.80
2018-11-21T02:29:38.094Z,4.80
2018-11-21T02:32:09.358Z,4.80
2018-11-21T02:34:38.228Z,4.70
2018-11-21T02:37:07.205Z,4.80
2018-11-21T02:39:36.064Z,4.70
2018-11-21T02:42:05.061Z,5.00
2018-11-21T02:44:34.007Z,5.00
2018-11-21T02:47:02.879Z,5.20
2018-11-21T02:49:31.950Z,4.90
2018-11-21T02:52:00.847Z,5.00
2018-11-21T02:54:29.780Z,4.70
2018-11-21T02:57:31.888Z,4.90
2018-11-21T03:00:05.040Z,4.30
2018-11-21T03:02:33.880Z,4.50
2018-11-21T03:05:02.864Z,4.70
2018-11-21T03:07:31.713Z,4.70
2018-11-21T03:10:00.540Z,4.40
2018-11-21T03:12:31.462Z,4.40
2018-11-21T03:15:00.377Z,4.60
2018-11-21T03:17:29.242Z,4.70
2018-11-21T03:19:58.185Z,4.80
2018-11-21T03:22:27.020Z,4.90
2018-11-21T03:24:55.942Z,4.70
2018-11-21T03:27:24.805Z,5.00
2018-11-21T03:29:53.763Z,5.00
2018-11-21T03:32:22.614Z,4.30
2018-11-21T03:34:51.547Z,4.40
2018-11-21T03:37:20.440Z,4.30
2018-11-21T03:39:49.402Z,4.80
2018-11-21T03:42:18.475Z,4.30
2018-11-21T03:44:47.350Z,4.40
2018-11-21T03:47:16.260Z,4.10
2018-11-21T03:49:45.250Z,4.20
2018-11-21T03:52:14.124Z,4.40
2018-11-21T03:54:43.066Z,4.30
2018-11-21T03:57:12.097Z,4.30
2018-11-21T03:59:41.066Z,4.30
2018-11-21T04:02:10.097Z,4.60
2018-11-21T04:04:39.111Z,4.10
2018-11-21T04:07:07.982Z,4.00
2018-11-21T04:09:36.863Z,4.00
2018-11-21T04:12:05.809Z,4.50
2018-11-21T04:14:34.669Z,4.50
2018-11-21T04:17:03.557Z,4.00
2018-11-21T04:19:32.446Z,4.30
2018-11-21T04:22:01.337Z,4.30
2018-11-21T04:24:30.208Z,3.90
2018-11-21T04:26:59.157Z,4.00
2018-11-21T04:29:28.129Z,3.90
2018-11-21T04:31:56.963Z,3.70
2018-11-21T04:34:25.873Z,3.70
2018-11-21T04:36:54.797Z,3.90
2018-11-21T04:39:23.695Z,3.90
2018-11-21T04:41:52.568Z,4.00
2018-11-21T04:44:21.467Z,3.80
2018-11-21T04:46:50.328Z,4.00
2018-11-21T04:49:19.221Z,4.30
2018-11-21T04:51:48.111Z,4.40
2018-11-21T04:54:17.030Z,4.70
2018-11-21T04:56:45.900Z,4.40
2018-11-21T04:59:14.785Z,4.20
2018-11-21T05:01:43.683Z,4.50
2018-11-21T05:04:12.535Z,4.30
2018-11-21T05:06:41.446Z,4.40
2018-11-21T05:09:11.547Z,4.40
2018-11-21T05:11:40.447Z,4.60
2018-11-21T05:14:09.341Z,4.40
2018-11-21T05:16:38.192Z,4.30
2018-11-21T05:19:07.132Z,4.50
2018-11-21T05:21:35.994Z,4.70
2018-11-21T05:24:05.117Z,4.50
2018-11-21T05:26:34.098Z,4.60
2018-11-21T05:29:02.953Z,4.70
2018-11-21T05:31:31.883Z,4.80
2018-11-21T05:34:00.744Z,4.90
2018-11-21T05:36:29.650Z,4.80
2018-11-21T05:38:58.626Z,4.60
2018-11-21T05:41:27.448Z,4.80
2018-11-21T05:43:56.308Z,4.50
2018-11-21T05:46:25.199Z,5.10
2018-11-21T05:48:54.164Z,4.90
2018-11-21T05:51:23.105Z,4.50
2018-11-21T05:53:52.006Z,4.40
2018-11-21T05:56:20.864Z,4.50
2018-11-21T05:58:49.763Z,4.60
2018-11-21T06:01:18.699Z,4.80
2018-11-21T06:03:47.689Z,4.70
2018-11-21T06:06:17.036Z,4.60
2018-11-21T06:08:45.972Z,4.90
2018-11-21T06:11:15.009Z,4.80
2018-11-21T06:13:43.926Z,5.20
2018-11-21T06:16:12.819Z,5.10
2018-11-21T06:18:41.730Z,4.80
2018-11-21T06:21:10.628Z,5.00
2018-11-21T06:23:39.460Z,4.50
2018-11-21T06:26:08.382Z,4.60
2018-11-21T06:28:37.305Z,4.70
2018-11-21T06:31:06.416Z,4.60
2018-11-21T06:33:35.334Z,4.60
2018-11-21T06:36:04.264Z,4.60
2018-11-21T06:38:33.139Z,4.70
2018-11-21T06:41:02.327Z,4.50
2018-11-21T06:43:32.569Z,4.80
2018-11-21T06:46:01.451Z,5.00
2018-11-21T06:48:30.337Z,4.70
2018-11-21T06:50:59.354Z,5.10
2018-11-21T06:53:28.222Z,4.70
2018-11-21T06:55:57.211Z,4.70
2018-11-21T06:58:26.200Z,4.90
2018-11-21T07:00:55.087Z,4.90
2018-11-21T07:03:23.957Z,5.10
2018-11-21T07:05:52.892Z,5.00
2018-11-21T07:08:21.728Z,4.90
2018-11-21T07:10:50.655Z,4.60
2018-11-21T07:13:19.548Z,4.70
2018-11-21T07:15:48.412Z,4.80
2018-11-21T07:18:17.317Z,5.00
2018-11-21T07:20:46.217Z,4.60
2018-11-21T07:23:15.060Z,4.70
2018-11-21T07:25:44.024Z,4.60
2018-11-21T07:28:13.339Z,4.70
2018-11-21T07:30:41.840Z,4.80
2018-11-21T07:33:11.385Z,4.70
2018-11-21T07:35:40.233Z,4.90
2018-11-21T07:38:09.143Z,5.00
2018-11-21T07:40:37.927Z,5.00
2018-11-21T07:43:06.804Z,5.20
2018-11-21T07:45:35.770Z,5.10
2018-11-21T07:48:04.709Z,5.30
2018-11-21T07:50:33.595Z,5.00
2018-11-21T07:53:02.569Z,5.50
2018-11-21T07:55:31.374Z,5.00
2018-11-21T07:58:05.771Z,5.10
2018-11-21T08:01:13.784Z,4.90
2018-11-21T08:03:53.427Z,4.90
2018-11-21T08:06:35.294Z,5.20
2018-11-21T08:09:27.709Z,4.80
2018-11-21T08:12:14.338Z,5.20
2018-11-21T08:15:01.118Z,5.30
2018-11-21T08:17:48.029Z,5.40
2018-11-21T08:20:28.545Z,5.10
2018-11-21T08:23:12.480Z,5.30
2018-11-21T08:26:03.090Z,5.20
2018-11-21T08:28:32.052Z,5.60
2018-11-21T08:31:00.915Z,5.90
2018-11-21T08:33:34.039Z,6.30
2018-11-21T08:35:59.848Z,6.30
2018-11-21T08:38:28.663Z,6.10
2018-11-21T08:40:57.503Z,5.80
2018-11-21T08:43:26.345Z,6.00
2018-11-21T08:45:55.217Z,6.00
2018-11-21T08:48:24.304Z,6.30
2018-11-21T08:50:53.165Z,6.50
2018-11-21T08:53:22.012Z,6.60
2018-11-21T08:55:50.869Z,6.50
2018-11-21T08:58:19.747Z,6.50
2018-11-21T09:00:49.197Z,6.50
2018-11-21T09:03:18.058Z,6.80
2018-11-21T09:05:46.921Z,6.40
2018-11-21T09:08:15.750Z,6.20
2018-11-21T09:10:44.579Z,5.60
2018-11-21T09:13:13.418Z,6.00
2018-11-21T09:15:42.277Z,5.80
2018-11-21T09:18:11.479Z,6.30
2018-11-21T09:20:40.319Z,6.00
2018-11-21T09:23:09.180Z,6.10
2018-11-21T09:25:38.021Z,5.90
2018-11-21T09:28:06.886Z,6.00
2018-11-21T09:30:35.709Z,5.90
2018-11-21T09:33:04.958Z,5.80
2018-11-21T09:35:33.787Z,6.30
2018-11-21T09:38:02.663Z,5.80
2018-11-21T09:40:31.565Z,5.20
2018-11-21T09:43:00.311Z,5.30
2018-11-21T09:45:29.149Z,5.40
2018-11-21T09:47:58.029Z,5.70
2018-11-21T09:50:28.414Z,5.90
2018-11-21T09:52:57.266Z,6.00
2018-11-21T09:55:26.087Z,6.20
2018-11-21T09:57:54.930Z,5.40
2018-11-21T10:01:19.343Z,5.80
2018-11-21T10:03:48.203Z,5.30
2018-11-21T10:06:26.399Z,5.30
2018-11-21T10:08:59.635Z,5.30
2018-11-21T10:11:29.136Z,5.40
2018-11-21T10:13:57.977Z,5.10
2018-11-21T10:16:26.825Z,5.30
2018-11-21T10:18:56.954Z,5.10
2018-11-21T10:21:27.253Z,5.20
2018-11-21T10:23:56.117Z,5.20
2018-11-21T10:26:24.958Z,5.60
2018-11-21T10:28:54.282Z,5.70
2018-11-21T10:31:23.111Z,5.50
2018-11-21T10:33:51.948Z,5.40
2018-11-21T10:36:20.762Z,5.70
2018-11-21T10:38:49.602Z,5.40
2018-11-21T10:41:18.425Z,5.20
2018-11-21T10:43:47.245Z,5.20
2018-11-21T10:46:16.064Z,5.40
2018-11-21T10:48:44.910Z,5.30
2018-11-21T10:51:15.009Z,5.50
2018-11-21T10:53:42.610Z,5.70
2018-11-21T10:56:11.473Z,5.00
2018-11-21T10:58:40.286Z,5.20
2018-11-21T11:01:46.531Z,5.50
2018-11-21T11:04:22.107Z,5.10
2018-11-21T11:07:08.321Z,5.10
2018-11-21T11:09:55.023Z,5.50
2018-11-21T11:12:52.103Z,5.60
2018-11-21T11:15:38.586Z,5.40
2018-11-21T11:18:30.622Z,5.50
2018-11-21T11:21:18.101Z,5.60
2018-11-21T11:24:09.053Z,6.10
2018-11-21T11:26:47.046Z,6.00
2018-11-21T11:29:41.026Z,6.30
2018-11-21T11:32:27.697Z,5.90
2018-11-21T11:35:21.326Z,6.20
2018-11-21T11:38:01.169Z,6.00
2018-11-21T11:40:48.026Z,5.70
2018-11-21T11:43:36.026Z,5.30
2018-11-21T11:46:41.941Z,5.40
2018-11-21T11:49:28.874Z,5.70
2018-11-21T11:52:22.566Z,5.90
2018-11-21T11:55:03.335Z,5.70
2018-11-21T11:57:50.676Z,6.10
2018-11-21T12:00:37.600Z,6.00
2018-11-21T12:03:37.883Z,5.90
2018-11-21T12:06:25.590Z,5.70
2018-11-21T12:09:08.387Z,5.60
2018-11-21T12:11:52.336Z,5.20
2018-11-21T12:14:32.917Z,5.50
2018-11-21T12:17:14.428Z,5.90
2018-11-21T12:20:01.024Z,5.50
2018-11-21T12:22:47.745Z,5.80
2018-11-21T12:25:34.476Z,5.80
2018-11-21T12:28:11.711Z,5.80
2018-11-21T12:31:20.519Z,5.80
2018-11-21T12:34:11.418Z,5.90
2018-11-21T12:37:05.917Z,5.40
2018-11-21T12:40:00.055Z,5.90
2018-11-21T12:42:58.643Z,5.90
2018-11-21T12:45:38.792Z,5.80
2018-11-21T12:48:31.452Z,6.10
2018-11-21T12:51:19.130Z,5.90
2018-11-21T12:54:07.198Z,6.00
2018-11-21T12:56:54.156Z,6.40
2018-11-21T12:59:40.835Z,5.70
2018-11-21T13:02:25.190Z,5.90
2018-11-21T13:05:12.200Z,5.20
2018-11-21T13:07:58.781Z,5.20
2018-11-21T13:10:46.812Z,5.40
2018-11-21T13:13:23.758Z,6.00
2018-11-21T13:16:09.685Z,6.40
2018-11-21T13:18:57.487Z,6.30
2018-11-21T13:21:44.954Z,6.40
2018-11-21T13:24:31.718Z,6.00
2018-11-21T13:27:14.744Z,5.90
2018-11-21T13:30:10.448Z,5.90
2018-11-21T13:33:13.624Z,5.50
2018-11-21T13:35:50.177Z,5.30
2018-11-21T13:38:37.348Z,5.20
2018-11-21T13:41:27.835Z,5.50
2018-11-21T13:44:15.070Z,5.30
2018-11-21T13:47:03.551Z,5.50
2018-11-21T13:49:50.349Z,5.50
2018-11-21T13:52:28.637Z,5.70
2018-11-21T13:55:01.546Z,5.30
2018-11-21T13:57:31.109Z,5.30
2018-11-21T14:00:00.369Z,5.50
2018-11-21T14:02:29.394Z,4.90
2018-11-21T14:04:58.489Z,5.20
2018-11-21T14:07:27.493Z,5.30
2018-11-21T14:09:56.341Z,5.40
2018-11-21T14:12:26.602Z,5.70
2018-11-21T14:14:54.120Z,5.70
2018-11-21T14:17:27.619Z,5.40
2018-11-21T14:19:51.826Z,5.60
2018-11-21T14:22:20.670Z,5.30
2018-11-21T14:24:49.523Z,5.60
2018-11-21T14:27:18.419Z,5.20
2018-11-21T14:29:47.355Z,5.00
2018-11-21T14:32:16.203Z,5.20
2018-11-21T14:34:45.162Z,4.90
2018-11-21T14:37:14.213Z,5.10
2018-11-21T14:39:43.077Z,4.70
2018-11-21T14:42:12.195Z,5.00
2018-11-21T14:44:41.094Z,5.20
2018-11-21T14:47:13.555Z,5.10
2018-11-21T14:49:43.771Z,5.00
2018-11-21T14:52:12.698Z,4.90
2018-11-21T14:54:41.694Z,4.80
2018-11-21T14:57:10.520Z,5.10
2018-11-21T14:59:39.403Z,4.70
2018-11-21T15:02:08.363Z,4.80
2018-11-21T15:04:37.187Z,4.50
2018-11-21T15:07:06.471Z,4.80
2018-11-21T15:09:35.414Z,5.00
2018-11-21T15:12:04.263Z,4.50
2018-11-21T15:14:33.212Z,4.70
2018-11-21T15:17:02.133Z,4.80
2018-11-21T15:19:31.032Z,4.70
2018-11-21T15:21:59.949Z,5.00
2018-11-21T15:24:28.766Z,4.50
2018-11-21T15:26:57.620Z,4.80
2018-11-21T15:29:26.535Z,4.60
2018-11-21T15:31:55.452Z,5.00
2018-11-21T15:34:24.479Z,4.60
2018-11-21T15:36:53.309Z,4.60
2018-11-21T15:39:22.179Z,4.70
2018-11-21T15:41:51.080Z,4.30
2018-11-21T15:44:19.951Z,4.30
2018-11-21T15:46:48.854Z,4.30
2018-11-21T15:49:17.745Z,4.60
2018-11-21T15:51:46.603Z,4.50
2018-11-21T15:54:15.520Z,4.60
2018-11-21T15:56:44.364Z,4.60
2018-11-21T15:59:13.280Z,4.40
2018-11-21T16:01:42.246Z,4.30
2018-11-21T16:04:11.160Z,4.60
2018-11-21T16:06:39.923Z,4.60
2018-11-21T16:09:10.589Z,4.80
2018-11-21T16:11:39.505Z,4.70
2018-11-21T16:14:08.425Z,4.80
2018-11-21T16:16:37.393Z,4.80
2018-11-21T16:19:09.210Z,4.90
2018-11-21T16:21:38.321Z,4.80
2018-11-21T16:24:07.235Z,5.10
2018-11-21T16:26:36.118Z,5.30
2018-11-21T16:29:05.226Z,5.00
2018-11-21T16:31:35.059Z,5.10
2018-11-21T16:34:02.977Z,5.40
2018-11-21T16:36:31.854Z,5.10
2018-11-21T16:39:01.200Z,4.90
2018-11-21T16:41:30.061Z,4.90
2018-11-21T16:43:58.963Z,4.70
2018-11-21T16:46:27.830Z,4.70
2018-11-21T16:48:56.695Z,5.10
2018-11-21T16:51:25.637Z,5.20
2018-11-21T16:53:54.604Z,5.20
2018-11-21T16:56:23.489Z,5.20
2018-11-21T16:58:52.388Z,5.40
2018-11-21T17:01:21.254Z,5.00
2018-11-21T17:03:50.176Z,5.10
2018-11-21T17:06:19.037Z,4.50
2018-11-21T17:08:47.932Z,4.80
2018-11-21T17:11:16.735Z,4.70
2018-11-21T17:13:45.648Z,4.70
2018-11-21T17:16:14.492Z,4.60
2018-11-21T17:18:43.381Z,4.70
2018-11-21T17:21:12.292Z,5.00
2018-11-21T17:23:41.271Z,4.90
2018-11-21T17:26:10.170Z,5.10
2018-11-21T17:28:39.042Z,4.70
2018-11-21T17:31:08.020Z,4.70
2018-11-21T17:33:36.827Z,4.20
2018-11-21T17:36:05.952Z,4.50
2018-11-21T17:38:34.819Z,4.80
2018-11-21T17:41:03.787Z,4.90
2018-11-21T17:43:32.719Z,4.60
2018-11-21T17:46:04.186Z,4.30
2018-11-21T17:48:30.506Z,4.90
2018-11-21T17:50:59.388Z,4.80
2018-11-21T17:53:28.332Z,4.70
2018-11-21T17:55:57.219Z,4.80
2018-11-21T17:58:26.039Z,4.80
2018-11-21T18:00:54.924Z,4.70
2018-11-21T18:03:23.849Z,4.70
2018-11-21T18:05:52.772Z,4.60
2018-11-21T18:08:21.585Z,4.30
2018-11-21T18:10:50.533Z,4.40
2018-11-21T18:13:19.501Z,4.40
2018-11-21T18:15:48.391Z,4.40
2018-11-21T18:18:17.247Z,4.80
2018-11-21T18:20:46.157Z,4.90
2018-11-21T18:23:15.001Z,4.70
2018-11-21T18:25:45.513Z,4.30
2018-11-21T18:28:14.258Z,4.20
2018-11-21T18:30:43.147Z,4.30
2018-11-21T18:33:12.152Z,4.10
2018-11-21T18:35:41.031Z,4.50
2018-11-21T18:38:09.887Z,4.30
2018-11-21T18:40:38.820Z,4.70
2018-11-21T18:43:07.717Z,4.70
2018-11-21T18:45:38.176Z,4.80
2018-11-21T18:48:07.513Z,4.40
2018-11-21T18:50:36.420Z,4.50
2018-11-21T18:53:06.519Z,4.50
2018-11-21T18:55:41.481Z,4.80
2018-11-21T18:59:03.150Z,4.90
2018-11-21T19:01:31.969Z,4.80
2018-11-21T19:04:00.873Z,4.60
2018-11-21T19:06:29.719Z,4.80
2018-11-21T19:08:58.555Z,4.50
2018-11-21T19:11:27.409Z,4.80
2018-11-21T19:13:56.342Z,4.60
2018-11-21T19:16:25.149Z,4.50
2018-11-21T19:18:54.027Z,4.40
2018-11-21T19:21:22.932Z,4.50
2018-11-21T19:23:51.754Z,4.60
2018-11-21T19:26:20.650Z,4.60
2018-11-21T19:28:49.564Z,4.70
2018-11-21T19:31:18.450Z,4.70
2018-11-21T19:33:47.367Z,4.50
2018-11-21T19:36:16.209Z,4.30
2018-11-21T19:38:45.132Z,4.30
2018-11-21T19:41:16.397Z,4.70
2018-11-21T19:43:45.229Z,4.70
2018-11-21T19:46:14.147Z,5.00
2018-11-21T19:48:43.036Z,4.90
2018-11-21T19:51:11.912Z,4.70
2018-11-21T19:53:40.821Z,4.90
2018-11-21T19:56:09.710Z,4.70
2018-11-21T19:58:38.604Z,4.40
2018-11-21T20:01:07.469Z,4.30
2018-11-21T20:03:36.377Z,4.90
2018-11-21T20:06:05.886Z,4.60
2018-11-21T20:08:34.791Z,4.70
2018-11-21T20:11:03.683Z,4.80
2018-11-21T20:13:32.541Z,4.70
2018-11-21T20:16:01.568Z,4.70
2018-11-21T20:18:30.652Z,4.50
2018-11-21T20:20:59.505Z,4.70
2018-11-21T20:23:28.408Z,4.40
2018-11-21T20:25:57.318Z,4.30
2018-11-21T20:28:26.389Z,4.20
2018-11-21T20:30:55.270Z,4.40
2018-11-21T20:33:24.237Z,4.40
2018-11-21T20:35:53.489Z,4.30
2018-11-21T20:38:22.381Z,4.30
2018-11-21T20:40:51.559Z,4.30
2018-11-21T20:43:23.226Z,4.40
2018-11-21T20:45:52.307Z,4.50
2018-11-21T20:48:21.417Z,4.50
2018-11-21T20:50:50.537Z,4.70
2018-11-21T20:53:19.582Z,4.40
2018-11-21T20:55:51.176Z,4.30
2018-11-21T20:58:20.533Z,4.50
2018-11-21T21:00:49.621Z,4.40
2018-11-21T21:03:18.915Z,4.40
2018-11-21T21:05:48.061Z,4.30
2018-11-21T21:08:17.217Z,4.60
2018-11-21T21:10:47.815Z,5.00
2018-11-21T21:13:16.939Z,4.60
2018-11-21T21:15:46.144Z,4.50
2018-11-21T21:18:15.342Z,5.00
2018-11-21T21:20:44.273Z,4.60
2018-11-21T21:23:13.142Z,4.30
2018-11-21T21:25:42.109Z,4.30
2018-11-21T21:28:11.031Z,4.70
2018-11-21T21:30:39.978Z,4.60
2018-11-21T21:33:08.910Z,4.60
2018-11-21T21:35:37.769Z,4.50
2018-11-21T21:38:06.850Z,4.60
2018-11-21T21:40:35.721Z,4.70
2018-11-21T21:45:39.680Z,4.80
2018-11-21T21:48:08.816Z,4.70
2018-11-21T21:50:37.669Z,4.70
2018-11-21T21:53:06.478Z,4.60
2018-11-21T21:55:35.281Z,4.80
2018-11-21T21:58:04.322Z,4.60
2018-11-21T22:00:33.162Z,4.80
2018-11-21T22:03:02.613Z,5.20
2018-11-21T22:05:32.181Z,5.10
2018-11-21T22:08:01.113Z,5.00
2018-11-21T22:10:29.992Z,4.90
2018-11-21T22:12:58.906Z,4.90
2018-11-21T22:15:31.757Z,4.90
2018-11-21T22:18:05.454Z,4.80
2018-11-21T22:20:34.347Z,4.80
2018-11-21T22:23:03.250Z,4.50
2018-11-21T22:25:32.116Z,4.70
2018-11-21T22:28:01.043Z,4.80
2018-11-21T22:30:29.917Z,4.80
2018-11-21T22:32:59.310Z,4.90
2018-11-21T22:35:29.919Z,4.60
2018-11-21T22:37:58.841Z,4.70
2018-11-21T22:40:27.917Z,4.70
2018-11-21T22:42:56.801Z,4.60
2018-11-21T22:45:25.813Z,5.10
2018-11-21T22:47:54.630Z,4.70
2018-11-21T22:50:24.605Z,4.80
2018-11-21T22:52:53.550Z,5.00
2018-11-21T22:55:22.869Z,4.90
2018-11-21T22:57:52.510Z,4.90
2018-11-21T23:00:24.256Z,4.50
2018-11-21T23:02:53.161Z,4.30
2018-11-21T23:05:22.025Z,4.40
2018-11-21T23:07:50.985Z,4.70
2018-11-21T23:10:26.863Z,4.70
2018-11-21T23:12:55.922Z,4.30
2018-11-21T23:15:24.751Z,4.40
2018-11-21T23:17:53.693Z,4.20
2018-11-21T23:20:22.534Z,4.40
2018-11-21T23:22:51.719Z,4.10
2018-11-21T23:25:20.517Z,4.10
2018-11-21T23:27:49.425Z,4.20
2018-11-21T23:30:19.227Z,4.00
2018-11-21T23:32:48.429Z,4.30
2018-11-21T23:35:18.546Z,4.10
2018-11-21T23:37:47.442Z,4.40
2018-11-21T23:40:16.942Z,4.10
2018-11-21T23:42:50.009Z,4.40
2018-11-21T23:45:19.021Z,4.30
2018-11-21T23:47:47.968Z,4.70
2018-11-21T23:50:17.855Z,4.40
2018-11-21T23:52:46.702Z,4.60
2018-11-21T23:55:17.942Z,4.40
2018-11-21T23:57:46.961Z,4.50
